createdAt,value
2022-09-21T00:00:01.124Z,101347.09
2022-09-21T00:02:31.387Z,101347.22
2022-09-21T00:05:02.518Z,101351.28
2022-09-21T00:07:30.365Z,101353.09
2022-09-21T00:09:58.944Z,101349.59
2022-09-21T00:12:26.900Z,101344.72
2022-09-21T00:14:56.674Z,101344.16
2022-09-21T00:17:24.654Z,101354.75
2022-09-21T00:19:55.415Z,101360.34
2022-09-21T00:22:23.443Z,101351.84
2022-09-21T00:24:51.726Z,101358.94
2022-09-21T00:27:20.153Z,101349.47
2022-09-21T00:29:48.804Z,101363.69
2022-09-21T00:32:17.171Z,101370.91
2022-09-21T00:34:45.160Z,101368.56
2022-09-21T00:37:14.665Z,101365.50
2022-09-21T00:39:42.700Z,101358.50
2022-09-21T00:42:11.762Z,101357.81
2022-09-21T00:44:39.897Z,101366.03
2022-09-21T00:47:12.678Z,101368.00
2022-09-21T00:49:42.681Z,101353.34
2022-09-21T00:52:14.953Z,101363.94
2022-09-21T00:54:48.006Z,101364.22
2022-09-21T00:57:18.389Z,101362.66
2022-09-21T00:59:47.760Z,101360.97
2022-09-21T01:02:17.431Z,101359.47
2022-09-21T01:04:46.950Z,101355.16
2022-09-21T01:07:18.938Z,101364.19
2022-09-21T01:09:53.791Z,101365.28
2022-09-21T01:12:36.840Z,101363.34
2022-09-21T01:15:18.094Z,101364.00
2022-09-21T01:18:07.257Z,101371.69
2022-09-21T01:21:22.036Z,101371.94
2022-09-21T01:24:10.127Z,101375.69
2022-09-21T01:27:00.675Z,101379.72
2022-09-21T01:29:33.868Z,101376.38
2022-09-21T01:32:07.236Z,101380.81
2022-09-21T01:34:39.768Z,101382.88
2022-09-21T01:37:11.864Z,101391.09
2022-09-21T01:39:44.902Z,101389.44
2022-09-21T01:42:15.503Z,101390.41
2022-09-21T01:44:47.258Z,101382.59
2022-09-21T01:47:17.107Z,101384.41
2022-09-21T01:49:57.460Z,101389.69
2022-09-21T01:52:36.326Z,101389.00
2022-09-21T01:55:10.820Z,101387.31
2022-09-21T01:57:44.273Z,101390.81
2022-09-21T02:00:16.022Z,101380.22
2022-09-21T02:02:50.759Z,101381.19
2022-09-21T02:05:21.376Z,101378.78
2022-09-21T02:07:50.576Z,101382.03
2022-09-21T02:10:24.754Z,101392.72
2022-09-21T02:12:57.181Z,101375.19
2022-09-21T02:15:38.759Z,101381.31
2022-09-21T02:18:18.697Z,101372.53
2022-09-21T02:21:01.109Z,101380.34
2022-09-21T02:23:38.990Z,101381.31
2022-09-21T02:26:13.553Z,101386.34
2022-09-21T02:28:49.534Z,101389.97
2022-09-21T02:31:30.588Z,101386.34
2022-09-21T02:34:03.571Z,101385.38
2022-09-21T02:36:37.986Z,101387.19
2022-09-21T02:39:12.737Z,101384.53
2022-09-21T02:41:47.817Z,101393.31
2022-09-21T02:44:33.214Z,101387.91
2022-09-21T02:47:08.419Z,101393.19
2022-09-21T02:49:42.493Z,101391.50
2022-09-21T02:52:18.759Z,101390.81
2022-09-21T02:54:50.970Z,101402.47
2022-09-21T02:57:21.888Z,101391.44
2022-09-21T02:59:50.919Z,101394.25
2022-09-21T03:02:21.470Z,101399.81
2022-09-21T03:04:50.695Z,101398.50
2022-09-21T03:07:19.431Z,101398.75
2022-09-21T03:09:47.529Z,101396.41
2022-09-21T03:12:15.548Z,101401.69
2022-09-21T03:14:43.526Z,101399.88
2022-09-21T03:17:11.567Z,101398.06
2022-09-21T03:19:41.112Z,101405.16
2022-09-21T03:22:09.331Z,101402.66
2022-09-21T03:24:53.643Z,101401.81
2022-09-21T03:27:24.190Z,101399.88
2022-09-21T03:29:52.227Z,101401.28
2022-09-21T03:32:20.863Z,101403.41
2022-09-21T03:34:50.717Z,101404.97
2022-09-21T03:37:18.763Z,101401.63
2022-09-21T03:39:47.517Z,101401.84
2022-09-21T03:42:16.229Z,101404.66
2022-09-21T03:44:44.571Z,101407.31
2022-09-21T03:47:16.615Z,101412.09
2022-09-21T03:49:44.641Z,101401.91
2022-09-21T03:52:14.213Z,101405.72
2022-09-21T03:54:42.291Z,101408.38
2022-09-21T03:57:10.669Z,101402.69
2022-09-21T03:59:39.171Z,101404.78
2022-09-21T04:02:24.444Z,101394.63
2022-09-21T04:04:52.763Z,101402.72
2022-09-21T04:07:22.285Z,101404.81
2022-09-21T04:09:50.299Z,101397.28
2022-09-21T04:12:20.748Z,101393.38
2022-09-21T04:14:49.839Z,101400.94
2022-09-21T04:17:18.604Z,101404.16
2022-09-21T04:19:46.724Z,101402.88
2022-09-21T04:22:14.950Z,101392.00
2022-09-21T04:24:44.445Z,101394.25
2022-09-21T04:27:13.251Z,101394.13
2022-09-21T04:29:41.957Z,101394.25
2022-09-21T04:32:11.566Z,101399.00
2022-09-21T04:34:40.548Z,101399.38
2022-09-21T04:37:09.017Z,101402.19
2022-09-21T04:39:47.741Z,101398.13
2022-09-21T04:42:15.815Z,101394.78
2022-09-21T04:44:44.168Z,101397.69
2022-09-21T04:47:12.294Z,101408.56
2022-09-21T04:49:43.419Z,101400.88
2022-09-21T04:52:14.690Z,101395.13
2022-09-21T04:54:50.598Z,101396.78
2022-09-21T04:57:18.702Z,101396.03
2022-09-21T04:59:47.559Z,101392.53
2022-09-21T05:02:15.710Z,101392.47
2022-09-21T05:04:47.494Z,101393.44
2022-09-21T05:07:18.631Z,101393.72
2022-09-21T05:10:05.236Z,101387.66
2022-09-21T05:12:38.556Z,101403.53
2022-09-21T05:15:10.546Z,101402.53
2022-09-21T05:17:38.951Z,101397.63
2022-09-21T05:20:07.821Z,101390.91
2022-09-21T05:22:35.922Z,101399.09
2022-09-21T05:25:06.337Z,101393.34
2022-09-21T05:27:34.490Z,101410.91
2022-09-21T05:30:03.165Z,101403.00
2022-09-21T05:32:44.987Z,101411.91
2022-09-21T05:35:21.892Z,101405.81
2022-09-21T05:37:55.263Z,101397.94
2022-09-21T05:40:25.644Z,101397.16
2022-09-21T05:42:54.711Z,101415.97
2022-09-21T05:45:23.366Z,101412.13
2022-09-21T05:48:02.070Z,101410.50
2022-09-21T05:50:40.202Z,101409.72
2022-09-21T05:53:25.394Z,101412.16
2022-09-21T05:56:00.924Z,101420.72
2022-09-21T05:58:37.183Z,101417.91
2022-09-21T06:01:20.750Z,101421.97
2022-09-21T06:03:50.326Z,101421.19
2022-09-21T06:06:18.850Z,101423.56
2022-09-21T06:08:47.251Z,101417.16
2022-09-21T06:11:16.973Z,101422.34
2022-09-21T06:13:45.042Z,101426.72
2022-09-21T06:16:13.304Z,101428.41
2022-09-21T06:18:42.505Z,101422.28
2022-09-21T06:21:11.300Z,101419.63
2022-09-21T06:23:42.182Z,101427.22
2022-09-21T06:26:10.213Z,101419.41
2022-09-21T06:28:39.820Z,101419.25
2022-09-21T06:31:07.941Z,101418.44
2022-09-21T06:33:37.860Z,101424.47
2022-09-21T06:36:08.382Z,101416.63
2022-09-21T06:38:37.132Z,101425.13
2022-09-21T06:41:05.985Z,101430.50
2022-09-21T06:43:34.581Z,101420.81
2022-09-21T06:46:05.450Z,101429.97
2022-09-21T06:48:35.568Z,101430.16
2022-09-21T06:51:05.401Z,101430.31
2022-09-21T06:53:35.133Z,101435.81
2022-09-21T06:56:04.443Z,101433.81
2022-09-21T06:58:41.298Z,101436.47
2022-09-21T07:01:14.998Z,101437.28
2022-09-21T07:03:44.627Z,101437.94
2022-09-21T07:06:15.066Z,101433.41
2022-09-21T07:11:32.438Z,101437.03
2022-09-21T07:14:00.695Z,101435.34
2022-09-21T07:16:30.516Z,101435.31
2022-09-21T07:19:10.160Z,101442.81
2022-09-21T07:21:38.929Z,101439.81
2022-09-21T07:24:11.893Z,101443.84
2022-09-21T07:26:40.870Z,101440.63
2022-09-21T07:29:11.517Z,101446.59
2022-09-21T07:31:41.075Z,101451.56
2022-09-21T07:34:09.291Z,101452.34
2022-09-21T07:36:37.349Z,101451.47
2022-09-21T07:39:06.159Z,101447.56
2022-09-21T07:41:34.366Z,101447.00
2022-09-21T07:44:03.193Z,101453.00
2022-09-21T07:46:36.665Z,101452.09
2022-09-21T07:49:06.524Z,101457.75
2022-09-21T07:51:36.007Z,101457.38
2022-09-21T07:54:07.073Z,101455.34
2022-09-21T07:56:35.048Z,101460.34
2022-09-21T07:59:08.255Z,101458.34
2022-09-21T08:01:43.471Z,101464.63
2022-09-21T08:04:13.202Z,101462.56
2022-09-21T08:06:41.397Z,101460.63
2022-09-21T08:09:09.749Z,101456.41
2022-09-21T08:11:39.223Z,101455.16
2022-09-21T08:14:07.408Z,101454.09
2022-09-21T08:16:35.876Z,101457.59
2022-09-21T08:19:05.629Z,101449.00
2022-09-21T08:21:35.122Z,101449.56
2022-09-21T08:24:04.372Z,101445.66
2022-09-21T08:26:32.375Z,101444.91
2022-09-21T08:29:00.474Z,101450.63
2022-09-21T08:31:29.691Z,101448.38
2022-09-21T08:33:58.866Z,101459.53
2022-09-21T08:36:27.023Z,101462.13
2022-09-21T08:38:57.012Z,101453.38
2022-09-21T08:41:34.462Z,101449.31
2022-09-21T08:44:06.771Z,101450.66
2022-09-21T08:46:36.996Z,101447.16
2022-09-21T08:49:10.252Z,101437.44
2022-09-21T08:51:43.302Z,101442.44
2022-09-21T08:54:20.573Z,101438.28
2022-09-21T08:57:04.432Z,101436.47
2022-09-21T08:59:32.880Z,101446.59
2022-09-21T09:02:17.744Z,101444.22
2022-09-21T09:04:55.100Z,101443.28
2022-09-21T09:07:37.614Z,101446.94
2022-09-21T09:10:21.626Z,101438.69
2022-09-21T09:13:06.071Z,101437.72
2022-09-21T09:15:50.198Z,101440.50
2022-09-21T09:18:25.744Z,101444.69
2022-09-21T09:20:59.488Z,101443.72
2022-09-21T09:23:29.989Z,101446.47
2022-09-21T09:26:05.789Z,101444.19
2022-09-21T09:28:38.905Z,101450.66
2022-09-21T09:31:22.754Z,101451.03
2022-09-21T09:34:00.414Z,101441.03
2022-09-21T09:36:56.773Z,101443.28
2022-09-21T09:39:21.728Z,101445.88
2022-09-21T09:42:16.583Z,101443.09
2022-09-21T09:45:19.215Z,101440.91
2022-09-21T09:47:59.314Z,101426.88
2022-09-21T09:50:30.500Z,101436.00
2022-09-21T09:53:06.198Z,101436.88
2022-09-21T09:55:39.698Z,101436.78
2022-09-21T09:58:19.553Z,101434.34
2022-09-21T10:00:53.504Z,101438.94
2022-09-21T10:03:24.649Z,101431.28
2022-09-21T10:05:55.581Z,101438.13
2022-09-21T10:08:46.661Z,101434.56
2022-09-21T10:11:16.311Z,101436.34
2022-09-21T10:13:48.699Z,101432.09
2022-09-21T10:16:23.045Z,101435.44
2022-09-21T10:18:56.402Z,101444.09
2022-09-21T10:21:26.761Z,101440.09
2022-09-21T10:24:00.633Z,101432.78
2022-09-21T10:26:34.043Z,101439.25
2022-09-21T10:29:18.236Z,101446.94
2022-09-21T10:31:57.429Z,101436.47
2022-09-21T10:34:29.045Z,101434.66
2022-09-21T10:36:59.131Z,101434.50
2022-09-21T10:39:29.910Z,101439.69
2022-09-21T10:42:05.991Z,101440.16
2022-09-21T10:44:41.690Z,101434.97
2022-09-21T10:47:23.166Z,101440.53
2022-09-21T10:49:53.999Z,101431.13
2022-09-21T10:52:29.099Z,101429.44
2022-09-21T10:54:58.152Z,101443.53
2022-09-21T10:57:27.894Z,101434.59
2022-09-21T10:59:58.452Z,101436.63
2022-09-21T11:02:39.696Z,101430.41
2022-09-21T11:05:14.064Z,101435.56
2022-09-21T11:07:49.179Z,101436.13
2022-09-21T11:10:25.300Z,101420.03
2022-09-21T11:13:12.768Z,101428.03
2022-09-21T11:15:48.495Z,101425.44
2022-09-21T11:18:23.388Z,101424.41
2022-09-21T11:20:58.050Z,101424.91
2022-09-21T11:23:40.648Z,101425.31
2022-09-21T11:26:16.612Z,101426.25
2022-09-21T11:28:51.042Z,101420.34
2022-09-21T11:31:50.700Z,101426.91
2022-09-21T11:34:31.307Z,101425.78
2022-09-21T11:37:12.377Z,101426.47
2022-09-21T11:39:57.477Z,101426.28
2022-09-21T11:42:42.394Z,101433.84
2022-09-21T11:45:26.482Z,101427.81
2022-09-21T11:48:09.649Z,101427.81
2022-09-21T11:50:52.765Z,101436.47
2022-09-21T11:53:46.969Z,101430.69
2022-09-21T11:56:31.514Z,101433.78
2022-09-21T11:59:11.158Z,101431.56
2022-09-21T12:02:05.300Z,101424.63
2022-09-21T12:04:49.492Z,101428.06
2022-09-21T12:07:57.404Z,101437.53
2022-09-21T12:10:40.687Z,101435.72
2022-09-21T12:13:20.916Z,101429.56
2022-09-21T12:15:59.123Z,101433.41
2022-09-21T12:18:32.595Z,101435.59
2022-09-21T12:21:12.650Z,101433.72
2022-09-21T12:23:44.741Z,101433.31
2022-09-21T12:26:16.372Z,101431.28
2022-09-21T12:28:48.900Z,101428.38
2022-09-21T12:31:22.016Z,101428.59
2022-09-21T12:33:55.085Z,101426.50
2022-09-21T12:36:38.215Z,101425.19
2022-09-21T12:39:33.219Z,101422.81
2022-09-21T12:42:21.631Z,101428.97
2022-09-21T12:44:56.045Z,101418.16
2022-09-21T12:47:32.089Z,101423.53
2022-09-21T12:50:28.275Z,101413.41
2022-09-21T12:52:59.300Z,101412.03
2022-09-21T12:55:45.627Z,101415.53
2022-09-21T12:58:30.408Z,101417.25
2022-09-21T13:01:08.882Z,101414.63
2022-09-21T13:03:44.104Z,101411.31
2022-09-21T13:06:38.410Z,101409.06
2022-09-21T13:09:12.955Z,101418.66
2022-09-21T13:11:53.019Z,101411.78
2022-09-21T13:14:22.093Z,101412.97
2022-09-21T13:16:57.765Z,101408.91
2022-09-21T13:19:27.934Z,101405.88
2022-09-21T13:22:14.015Z,101408.50
2022-09-21T13:24:45.586Z,101398.88
2022-09-21T13:27:43.136Z,101402.06
2022-09-21T13:30:32.735Z,101408.13
2022-09-21T13:33:02.004Z,101404.13
2022-09-21T13:36:16.052Z,101398.50
2022-09-21T13:39:15.050Z,101399.13
2022-09-21T13:42:02.394Z,101405.25
2022-09-21T13:44:44.378Z,101408.66
2022-09-21T13:47:14.924Z,101405.13
2022-09-21T13:49:54.873Z,101410.84
2022-09-21T13:52:35.227Z,101408.88
2022-09-21T13:55:06.541Z,101404.53
2022-09-21T13:57:40.701Z,101401.50
2022-09-21T14:00:35.690Z,101407.00
2022-09-21T14:03:08.370Z,101403.47
2022-09-21T14:05:42.799Z,101401.81
2022-09-21T14:08:23.580Z,101406.81
2022-09-21T14:10:55.855Z,101402.84
2022-09-21T14:13:33.851Z,101399.72
2022-09-21T14:16:27.812Z,101403.41
2022-09-21T14:18:56.370Z,101391.25
2022-09-21T14:21:24.711Z,101400.66
2022-09-21T14:24:22.277Z,101400.63
2022-09-21T14:27:07.128Z,101397.22
2022-09-21T14:29:44.991Z,101396.41
2022-09-21T14:32:19.303Z,101393.91
2022-09-21T14:34:52.186Z,101393.06
2022-09-21T14:37:29.093Z,101389.31
2022-09-21T14:39:59.346Z,101390.97
2022-09-21T14:42:30.100Z,101380.41
2022-09-21T14:45:02.473Z,101388.56
2022-09-21T14:47:53.052Z,101384.28
2022-09-21T14:50:32.797Z,101382.28
2022-09-21T14:53:20.258Z,101389.31
2022-09-21T14:56:03.918Z,101387.56
2022-09-21T14:58:45.178Z,101393.22
2022-09-21T15:01:57.113Z,101388.09
2022-09-21T15:04:33.166Z,101387.97
2022-09-21T15:07:30.620Z,101398.19
2022-09-21T15:10:35.123Z,101389.91
2022-09-21T15:13:15.010Z,101391.00
2022-09-21T15:15:53.566Z,101392.91
2022-09-21T15:18:25.798Z,101385.06
2022-09-21T15:21:01.643Z,101396.69
2022-09-21T15:23:32.775Z,101396.28
2022-09-21T15:26:04.117Z,101388.59
2022-09-21T15:29:08.002Z,101385.13
2022-09-21T15:31:37.263Z,101388.22
2022-09-21T15:34:12.128Z,101386.78
2022-09-21T15:36:42.232Z,101379.72
2022-09-21T15:39:23.598Z,101389.63
2022-09-21T15:42:09.473Z,101389.16
2022-09-21T15:44:39.804Z,101378.19
2022-09-21T15:47:17.179Z,101375.03
2022-09-21T15:49:46.792Z,101370.91
2022-09-21T15:52:24.221Z,101371.78
2022-09-21T15:55:05.964Z,101365.94
2022-09-21T15:57:39.243Z,101379.09
2022-09-21T16:00:24.353Z,101370.75
2022-09-21T16:03:19.601Z,101375.16
2022-09-21T16:05:52.129Z,101382.66
2022-09-21T16:08:33.127Z,101375.22
2022-09-21T16:11:16.764Z,101371.75
2022-09-21T16:14:12.644Z,101379.19
2022-09-21T16:17:25.046Z,101379.69
2022-09-21T16:20:16.094Z,101380.28
2022-09-21T16:22:48.200Z,101375.88
2022-09-21T16:25:27.500Z,101386.03
2022-09-21T16:27:58.076Z,101389.03
2022-09-21T16:30:46.888Z,101387.13
2022-09-21T16:33:42.373Z,101388.75
2022-09-21T16:36:38.888Z,101396.31
2022-09-21T16:39:14.904Z,101382.38
2022-09-21T16:41:56.182Z,101383.41
2022-09-21T16:44:27.235Z,101389.19
2022-09-21T16:46:59.082Z,101391.03
2022-09-21T16:49:30.568Z,101397.53
2022-09-21T16:51:59.397Z,101394.13
2022-09-21T16:54:29.204Z,101393.81
2022-09-21T16:57:00.812Z,101393.72
2022-09-21T16:59:29.629Z,101395.44
2022-09-21T17:02:00.550Z,101399.47
2022-09-21T17:04:32.621Z,101398.06
2022-09-21T17:07:00.929Z,101405.16
2022-09-21T17:09:33.301Z,101420.69
2022-09-21T17:12:09.520Z,101415.38
2022-09-21T17:14:43.059Z,101419.13
2022-09-21T17:17:17.910Z,101410.31
2022-09-21T17:19:47.019Z,101412.19
2022-09-21T17:22:22.016Z,101421.06
2022-09-21T17:24:54.827Z,101421.06
2022-09-21T17:27:25.039Z,101415.53
2022-09-21T17:29:54.156Z,101427.88
2022-09-21T17:32:25.348Z,101426.84
2022-09-21T17:34:58.927Z,101426.47
2022-09-21T17:37:27.444Z,101432.06
2022-09-21T17:39:56.942Z,101418.81
2022-09-21T17:42:26.104Z,101433.75
2022-09-21T17:45:03.004Z,101430.84
2022-09-21T17:47:33.969Z,101431.09
2022-09-21T17:50:16.605Z,101435.34
2022-09-21T17:53:03.354Z,101434.38
2022-09-21T17:55:33.597Z,101440.16
2022-09-21T17:58:12.250Z,101432.69
2022-09-21T18:00:50.526Z,101431.25
2022-09-21T18:03:23.259Z,101430.91
2022-09-21T18:06:12.378Z,101436.16
2022-09-21T18:08:41.557Z,101435.13
2022-09-21T18:11:34.552Z,101435.34
2022-09-21T18:14:10.163Z,101441.56
2022-09-21T18:16:49.668Z,101444.22
2022-09-21T18:19:31.061Z,101447.28
2022-09-21T18:22:20.152Z,101453.16
2022-09-21T18:24:50.021Z,101451.16
2022-09-21T18:27:20.160Z,101450.84
2022-09-21T18:29:48.643Z,101448.66
2022-09-21T18:32:57.224Z,101446.00
2022-09-21T18:35:42.368Z,101444.19
2022-09-21T18:38:22.063Z,101450.03
2022-09-21T18:41:02.148Z,101444.66
2022-09-21T18:43:53.403Z,101448.69
2022-09-21T18:46:28.945Z,101446.66
2022-09-21T18:49:08.807Z,101442.69
2022-09-21T18:51:45.271Z,101446.00
2022-09-21T18:54:20.712Z,101451.19
2022-09-21T18:56:49.297Z,101451.63
2022-09-21T18:59:19.456Z,101457.13
2022-09-21T19:01:51.085Z,101463.44
2022-09-21T19:04:30.032Z,101451.75
2022-09-21T19:07:16.587Z,101460.25
2022-09-21T19:09:52.552Z,101460.72
2022-09-21T19:12:32.664Z,101464.69
2022-09-21T19:15:13.993Z,101466.88
2022-09-21T19:17:59.502Z,101467.47
2022-09-21T19:20:49.792Z,101464.28
2022-09-21T19:23:33.107Z,101469.97
2022-09-21T19:26:19.673Z,101461.59
2022-09-21T19:29:06.121Z,101471.59
2022-09-21T19:31:36.594Z,101479.25
2022-09-21T19:34:16.902Z,101473.69
2022-09-21T19:36:47.152Z,101471.66
2022-09-21T19:39:16.583Z,101476.47
2022-09-21T19:41:57.047Z,101477.78
2022-09-21T19:44:41.122Z,101474.09
2022-09-21T19:47:20.391Z,101475.25
2022-09-21T19:49:50.715Z,101479.88
2022-09-21T19:52:20.771Z,101477.81
2022-09-21T19:55:07.109Z,101477.47
2022-09-21T19:57:53.145Z,101482.97
2022-09-21T20:00:22.832Z,101482.44
2022-09-21T20:03:03.516Z,101478.41
2022-09-21T20:05:45.765Z,101474.69
2022-09-21T20:08:22.537Z,101478.66
2022-09-21T20:11:02.172Z,101478.16
2022-09-21T20:14:12.738Z,101481.94
2022-09-21T20:16:48.100Z,101473.72
2022-09-21T20:19:33.973Z,101483.88
2022-09-21T20:22:05.397Z,101482.50
2022-09-21T20:24:41.609Z,101477.63
2022-09-21T20:27:22.484Z,101481.75
2022-09-21T20:29:50.475Z,101480.53
2022-09-21T20:32:18.585Z,101482.78
2022-09-21T20:34:50.436Z,101479.78
2022-09-21T20:37:19.308Z,101484.41
2022-09-21T20:39:47.628Z,101483.72
2022-09-21T20:42:20.616Z,101474.34
2022-09-21T20:44:48.624Z,101473.84
2022-09-21T20:47:16.977Z,101472.31
2022-09-21T20:49:47.346Z,101484.25
2022-09-21T20:52:20.127Z,101479.22
2022-09-21T20:54:49.566Z,101479.53
2022-09-21T20:57:21.282Z,101479.00
2022-09-21T20:59:49.518Z,101486.56
2022-09-21T21:02:17.903Z,101486.22
2022-09-21T21:04:46.848Z,101488.47
2022-09-21T21:07:18.088Z,101484.41
2022-09-21T21:09:47.600Z,101478.41
2022-09-21T21:12:16.743Z,101484.06
2022-09-21T21:14:45.387Z,101480.69
2022-09-21T21:17:16.584Z,101481.97
2022-09-21T21:19:44.938Z,101485.75
2022-09-21T21:22:14.579Z,101482.56
2022-09-21T21:24:43.682Z,101484.53
2022-09-21T21:27:17.305Z,101480.34
2022-09-21T21:29:46.722Z,101478.13
2022-09-21T21:32:15.196Z,101481.25
2022-09-21T21:34:43.717Z,101484.88
2022-09-21T21:37:12.978Z,101486.00
2022-09-21T21:39:41.148Z,101475.94
2022-09-21T21:42:10.915Z,101480.75
2022-09-21T21:44:40.392Z,101477.25
2022-09-21T21:47:40.622Z,101474.19
2022-09-21T21:50:10.304Z,101474.19
2022-09-21T21:52:38.423Z,101480.47
2022-09-21T21:55:08.261Z,101484.94
2022-09-21T21:57:36.335Z,101479.09
2022-09-21T22:00:07.765Z,101485.56
2022-09-21T22:02:36.778Z,101480.38
2022-09-21T22:05:06.481Z,101483.19
2022-09-21T22:07:34.554Z,101483.59
2022-09-21T22:10:03.356Z,101470.56
2022-09-21T22:12:31.759Z,101476.19
2022-09-21T22:14:59.818Z,101474.66
2022-09-21T22:17:29.201Z,101473.53
2022-09-21T22:19:57.309Z,101476.34
2022-09-21T22:22:25.855Z,101468.25
2022-09-21T22:24:53.932Z,101475.41
2022-09-21T22:27:21.977Z,101471.91
2022-09-21T22:29:50.031Z,101472.03
2022-09-21T22:32:18.037Z,101475.53
2022-09-21T22:34:47.458Z,101475.81
2022-09-21T22:37:15.477Z,101476.81
2022-09-21T22:39:43.861Z,101475.28
2022-09-21T22:42:12.193Z,101476.53
2022-09-21T22:44:40.651Z,101474.16
2022-09-21T22:47:08.655Z,101484.25
2022-09-21T22:49:36.802Z,101480.91
2022-09-21T22:52:06.512Z,101484.81
2022-09-21T22:54:34.712Z,101480.47
2022-09-21T22:57:03.271Z,101476.28
2022-09-21T22:59:31.390Z,101475.56
2022-09-21T23:01:59.468Z,101474.75
2022-09-21T23:04:33.257Z,101478.41
2022-09-21T23:07:01.480Z,101477.84
2022-09-21T23:09:30.862Z,101477.00
2022-09-21T23:11:59.761Z,101485.94
2022-09-21T23:14:27.790Z,101487.19
2022-09-21T23:16:55.883Z,101479.50
2022-09-21T23:19:23.900Z,101485.25
2022-09-21T23:21:57.688Z,101480.91
2022-09-21T23:24:25.795Z,101485.50
2022-09-21T23:26:55.311Z,101480.47
2022-09-21T23:29:23.330Z,101483.13
2022-09-21T23:31:52.017Z,101478.94
2022-09-21T23:34:20.086Z,101481.75
2022-09-21T23:36:56.025Z,101478.41
2022-09-21T23:39:24.196Z,101471.81
2022-09-21T23:41:52.334Z,101473.22
2022-09-21T23:44:22.424Z,101472.53
2022-09-21T23:46:50.525Z,101470.59
2022-09-21T23:49:18.565Z,101476.59
2022-09-21T23:51:47.093Z,101461.50
2022-09-21T23:54:16.285Z,101468.31
2022-09-21T23:56:45.391Z,101470.97
2022-09-21T23:59:13.699Z,101464.69
